Eden II — FGH2300 — position and weather

sailwx.info

Track history (hours):
 
Tides and Currents Weather Stations Pressure Air Temp Water Temp Dewpoint Dewpoint Depression Visibility Wind Speed Wind Dir Waves Ship Positions

Eden II

Last reported at 2017-Aug-25 20:53 UTC. Time now 2017-Sep-25 06:34 UTC.
Position N 49°29' E 000°06'.
Warning: this ship's position is 30 days out of date.

Length 12 m.

Type: Sailing vessel. MMSI: 227074540.

Date/timePositionNaut miles runAvg speedWind from/ knotsBaromVisibWave heightAir tempDewpointWater temp
2017-Aug-25 20:53N 49°29' E 000°06'0 0.0
2017-Aug-25 20:29N 49°29' E 000°06'1 2.3
2017-Aug-25 20:00N 49°29' E 000°04'3 5.2
2017-Aug-25 19:30N 49°29' W 000°00'  
2017-Aug-21 15:10N 49°43' W 001°17'1 4.7
2017-Aug-21 15:00N 49°44' W 001°18'2 4.0
2017-Aug-21 14:30N 49°44' W 001°21'2 3.5
2017-Aug-21 14:00N 49°45' W 001°23'2 3.6
2017-Aug-21 13:30N 49°45' W 001°26'7 2.9
2017-Aug-21 11:10N 49°46' W 001°36'1 4.3
2017-Aug-21 11:00N 49°46' W 001°37'2 4.7
2017-Aug-21 10:30N 49°46' W 001°41'3 5.5
2017-Aug-21 10:00N 49°46' W 001°45'8 5.8
2017-Aug-21 08:40N 49°45' W 001°57'1 5.7
2017-Aug-21 08:30N 49°45' W 001°59'5 9.9
2017-Aug-21 07:59N 49°39' W 001°59'60 2.5
2017-Aug-20 07:50N 48°40' W 002°12'  
2017-Aug-16 14:01N 48°39' W 002°49'0 0.0
2017-Aug-16 13:58N 48°39' W 002°49'1 1.0
2017-Aug-16 13:24N 48°39' W 002°49'2 5.7
2017-Aug-16 13:01N 48°42' W 002°49'4 7.1
2017-Aug-16 12:29N 48°45' W 002°49'3 6.3
2017-Aug-16 11:59N 48°48' W 002°49'3 5.7
2017-Aug-16 11:30N 48°51' W 002°49'  
Track history (hours):
 
Tides and Currents Weather Stations Pressure Air Temp Water Temp Dewpoint Dewpoint Depression Visibility Wind Speed Wind Dir Waves Ship Positions

Eden II

Last reported at 2017-Aug-25 20:53 UTC. Time now 2017-Sep-25 06:34 UTC.
Position N 49°29' E 000°06'.
Warning: this ship's position is 30 days out of date.

Length 12 m.

Type: Sailing vessel. MMSI: 227074540.

Date/timePositionNaut miles runAvg speedWind from/ knotsBaromVisibWave heightAir tempDewpointWater temp
2017-Aug-25 20:53N 49°29' E 000°06'0 0.0
2017-Aug-25 20:29N 49°29' E 000°06'1 2.3
2017-Aug-25 20:00N 49°29' E 000°04'3 5.2
2017-Aug-25 19:30N 49°29' W 000°00'  
2017-Aug-21 15:10N 49°43' W 001°17'1 4.7
2017-Aug-21 15:00N 49°44' W 001°18'2 4.0
2017-Aug-21 14:30N 49°44' W 001°21'2 3.5
2017-Aug-21 14:00N 49°45' W 001°23'2 3.6
2017-Aug-21 13:30N 49°45' W 001°26'7 2.9
2017-Aug-21 11:10N 49°46' W 001°36'1 4.3
2017-Aug-21 11:00N 49°46' W 001°37'2 4.7
2017-Aug-21 10:30N 49°46' W 001°41'3 5.5
2017-Aug-21 10:00N 49°46' W 001°45'8 5.8
2017-Aug-21 08:40N 49°45' W 001°57'1 5.7
2017-Aug-21 08:30N 49°45' W 001°59'5 9.9
2017-Aug-21 07:59N 49°39' W 001°59'60 2.5
2017-Aug-20 07:50N 48°40' W 002°12'  
2017-Aug-16 14:01N 48°39' W 002°49'0 0.0
2017-Aug-16 13:58N 48°39' W 002°49'1 1.0
2017-Aug-16 13:24N 48°39' W 002°49'2 5.7
2017-Aug-16 13:01N 48°42' W 002°49'4 7.1
2017-Aug-16 12:29N 48°45' W 002°49'3 6.3
2017-Aug-16 11:59N 48°48' W 002°49'3 5.7
2017-Aug-16 11:30N 48°51' W 002°49'  

Dump ship's entire track history